sensor_id;sensor_type;location;lat;lon;timestamp;noise_LAeq;noise_LA_min;noise_LA_max;noise_LA01;noise_LA95
45964;Laerm;31671;48.092;11.842;2023-03-23T00:01:34;30.43;27.95;36.78;;
45964;Laerm;31671;48.092;11.842;2023-03-23T00:03:59;29.52;27.96;33.54;;
45964;Laerm;31671;48.092;11.842;2023-03-23T00:06:26;29.97;27.92;35.87;;
45964;Laerm;31671;48.092;11.842;2023-03-23T00:08:53;30.19;28.35;39.35;;
45964;Laerm;31671;48.092;11.842;2023-03-23T00:11:20;30.14;27.96;36.98;;
45964;Laerm;31671;48.092;11.842;2023-03-23T00:13:47;29.33;27.95;30.94;;
45964;Laerm;31671;48.092;11.842;2023-03-23T00:16:13;29.30;27.96;30.52;;
45964;Laerm;31671;48.092;11.842;2023-03-23T00:18:39;29.42;27.95;32.65;;
45964;Laerm;31671;48.092;11.842;2023-03-23T00:21:04;29.31;27.75;30.41;;
45964;Laerm;31671;48.092;11.842;2023-03-23T00:23:30;29.28;27.84;30.68;;
45964;Laerm;31671;48.092;11.842;2023-03-23T00:25:56;29.26;27.87;30.44;;
45964;Laerm;31671;48.092;11.842;2023-03-23T00:28:22;29.26;27.98;30.55;;
45964;Laerm;31671;48.092;11.842;2023-03-23T00:30:48;29.28;28.08;31.37;;
45964;Laerm;31671;48.092;11.842;2023-03-23T00:33:13;29.31;27.95;30.67;;
45964;Laerm;31671;48.092;11.842;2023-03-23T00:35:39;29.21;27.76;30.36;;
45964;Laerm;31671;48.092;11.842;2023-03-23T00:38:05;29.21;27.92;30.50;;
45964;Laerm;31671;48.092;11.842;2023-03-23T00:40:31;29.26;27.96;31.94;;
45964;Laerm;31671;48.092;11.842;2023-03-23T00:42:56;29.30;28.03;31.62;;
45964;Laerm;31671;48.092;11.842;2023-03-23T00:45:22;29.15;27.84;32.96;;
45964;Laerm;31671;48.092;11.842;2023-03-23T00:47:48;29.18;27.73;30.50;;
45964;Laerm;31671;48.092;11.842;2023-03-23T00:50:14;29.24;27.66;34.63;;
45964;Laerm;31671;48.092;11.842;2023-03-23T00:52:40;29.20;27.88;30.46;;
45964;Laerm;31671;48.092;11.842;2023-03-23T00:55:06;29.21;27.66;30.59;;
45964;Laerm;31671;48.092;11.842;2023-03-23T00:57:31;29.18;27.96;30.50;;
45964;Laerm;31671;48.092;11.842;2023-03-23T00:59:57;29.28;27.86;32.41;;
45964;Laerm;31671;48.092;11.842;2023-03-23T01:02:23;29.20;27.85;30.45;;
45964;Laerm;31671;48.092;11.842;2023-03-23T01:04:48;30.10;27.90;34.82;;
45964;Laerm;31671;48.092;11.842;2023-03-23T01:07:14;29.23;27.82;30.60;;
45964;Laerm;31671;48.092;11.842;2023-03-23T01:09:40;29.20;27.95;30.35;;
45964;Laerm;31671;48.092;11.842;2023-03-23T01:12:05;29.19;27.99;30.95;;
45964;Laerm;31671;48.092;11.842;2023-03-23T01:14:32;29.46;27.79;32.21;;
45964;Laerm;31671;48.092;11.842;2023-03-23T01:16:57;29.21;28.00;30.37;;
45964;Laerm;31671;48.092;11.842;2023-03-23T01:19:23;29.31;27.99;31.94;;
45964;Laerm;31671;48.092;11.842;2023-03-23T01:21:49;29.73;28.01;32.77;;
45964;Laerm;31671;48.092;11.842;2023-03-23T01:24:14;29.47;27.80;31.37;;
45964;Laerm;31671;48.092;11.842;2023-03-23T01:26:40;29.33;27.90;31.41;;
45964;Laerm;31671;48.092;11.842;2023-03-23T01:29:06;33.04;27.59;45.41;;
45964;Laerm;31671;48.092;11.842;2023-03-23T01:31:32;31.45;27.96;41.60;;
45964;Laerm;31671;48.092;11.842;2023-03-23T01:33:58;29.19;27.84;30.48;;
45964;Laerm;31671;48.092;11.842;2023-03-23T01:36:25;29.18;27.30;30.34;;
45964;Laerm;31671;48.092;11.842;2023-03-23T01:38:51;29.23;27.75;30.64;;
45964;Laerm;31671;48.092;11.842;2023-03-23T01:41:17;29.23;28.02;30.52;;
45964;Laerm;31671;48.092;11.842;2023-03-23T01:43:57;29.18;27.47;30.45;;
45964;Laerm;31671;48.092;11.842;2023-03-23T01:46:27;29.85;27.93;35.30;;
45964;Laerm;31671;48.092;11.842;2023-03-23T01:48:53;29.18;27.78;30.42;;
45964;Laerm;31671;48.092;11.842;2023-03-23T01:51:20;29.24;27.76;30.45;;
45964;Laerm;31671;48.092;11.842;2023-03-23T01:53:56;31.58;27.95;40.47;;
45964;Laerm;31671;48.092;11.842;2023-03-23T01:56:24;29.14;27.75;30.38;;
45964;Laerm;31671;48.092;11.842;2023-03-23T01:58:52;29.18;27.75;30.29;;
45964;Laerm;31671;48.092;11.842;2023-03-23T02:01:18;29.19;27.81;30.56;;
45964;Laerm;31671;48.092;11.842;2023-03-23T02:06:13;30.09;27.85;38.73;;
45964;Laerm;31671;48.092;11.842;2023-03-23T02:08:59;30.46;27.83;43.80;;
45964;Laerm;31671;48.092;11.842;2023-03-23T02:11:25;29.16;27.87;30.52;;
45964;Laerm;31671;48.092;11.842;2023-03-23T02:13:51;29.16;27.70;30.39;;
45964;Laerm;31671;48.092;11.842;2023-03-23T02:18:46;29.12;27.60;30.73;;
45964;Laerm;31671;48.092;11.842;2023-03-23T02:21:36;29.20;27.84;30.46;;
45964;Laerm;31671;48.092;11.842;2023-03-23T02:29:30;29.16;27.68;31.33;;
45964;Laerm;31671;48.092;11.842;2023-03-23T02:32:20;29.22;27.94;31.51;;
45964;Laerm;31671;48.092;11.842;2023-03-23T02:39:49;29.25;27.89;31.41;;
45964;Laerm;31671;48.092;11.842;2023-03-23T02:42:17;29.15;27.95;30.52;;
45964;Laerm;31671;48.092;11.842;2023-03-23T02:44:45;29.21;27.82;31.12;;
45964;Laerm;31671;48.092;11.842;2023-03-23T02:47:12;29.13;27.82;30.31;;
45964;Laerm;31671;48.092;11.842;2023-03-23T02:49:40;29.22;27.94;32.85;;
45964;Laerm;31671;48.092;11.842;2023-03-23T02:52:09;29.20;27.79;31.27;;
45964;Laerm;31671;48.092;11.842;2023-03-23T02:54:36;29.20;27.94;30.55;;
45964;Laerm;31671;48.092;11.842;2023-03-23T02:57:02;29.16;27.87;30.53;;
45964;Laerm;31671;48.092;11.842;2023-03-23T02:59:29;29.17;27.82;30.42;;
45964;Laerm;31671;48.092;11.842;2023-03-23T03:01:57;29.19;27.81;30.47;;
45964;Laerm;31671;48.092;11.842;2023-03-23T03:04:25;29.13;27.85;30.26;;
45964;Laerm;31671;48.092;11.842;2023-03-23T03:09:36;29.17;27.65;30.49;;
45964;Laerm;31671;48.092;11.842;2023-03-23T03:12:28;29.16;27.80;30.40;;
45964;Laerm;31671;48.092;11.842;2023-03-23T03:15:41;29.21;27.78;30.46;;
45964;Laerm;31671;48.092;11.842;2023-03-23T03:17:47;30.65;27.92;37.86;;
45964;Laerm;31671;48.092;11.842;2023-03-23T03:20:14;29.29;27.78;31.01;;
45964;Laerm;31671;48.092;11.842;2023-03-23T03:22:42;29.18;27.75;30.75;;
45964;Laerm;31671;48.092;11.842;2023-03-23T03:25:10;29.19;27.83;32.86;;
45964;Laerm;31671;48.092;11.842;2023-03-23T03:27:36;29.14;27.81;30.38;;
45964;Laerm;31671;48.092;11.842;2023-03-23T03:30:09;30.76;27.90;36.64;;
45964;Laerm;31671;48.092;11.842;2023-03-23T03:32:41;29.48;27.79;33.83;;
45964;Laerm;31671;48.092;11.842;2023-03-23T03:35:09;30.19;27.81;35.42;;
45964;Laerm;31671;48.092;11.842;2023-03-23T03:37:36;29.26;28.00;30.94;;
45964;Laerm;31671;48.092;11.842;2023-03-23T03:40:02;30.49;27.97;36.52;;
45964;Laerm;31671;48.092;11.842;2023-03-23T03:42:27;29.33;27.90;32.65;;
45964;Laerm;31671;48.092;11.842;2023-03-23T03:44:53;31.77;27.90;40.15;;
45964;Laerm;31671;48.092;11.842;2023-03-23T03:47:19;30.53;27.88;39.56;;
45964;Laerm;31671;48.092;11.842;2023-03-23T03:49:45;31.62;28.04;40.27;;
45964;Laerm;31671;48.092;11.842;2023-03-23T03:52:10;29.16;27.72;30.37;;
45964;Laerm;31671;48.092;11.842;2023-03-23T03:54:40;29.19;28.00;30.35;;
45964;Laerm;31671;48.092;11.842;2023-03-23T03:57:05;29.61;27.84;38.33;;
45964;Laerm;31671;48.092;11.842;2023-03-23T03:59:43;29.19;27.95;33.18;;
45964;Laerm;31671;48.092;11.842;2023-03-23T04:02:27;33.19;28.04;46.30;;
45964;Laerm;31671;48.092;11.842;2023-03-23T04:04:54;29.66;27.87;38.12;;
45964;Laerm;31671;48.092;11.842;2023-03-23T04:07:20;29.36;27.94;32.50;;
45964;Laerm;31671;48.092;11.842;2023-03-23T04:09:45;29.25;27.88;30.75;;
45964;Laerm;31671;48.092;11.842;2023-03-23T04:12:12;29.26;27.97;32.28;;
45964;Laerm;31671;48.092;11.842;2023-03-23T04:14:56;29.32;28.00;32.06;;
45964;Laerm;31671;48.092;11.842;2023-03-23T04:17:26;29.33;28.14;30.64;;
45964;Laerm;31671;48.092;11.842;2023-03-23T04:19:52;29.36;27.73;33.58;;
45964;Laerm;31671;48.092;11.842;2023-03-23T04:22:18;29.76;27.64;36.98;;
45964;Laerm;31671;48.092;11.842;2023-03-23T04:24:44;29.38;28.00;30.87;;
45964;Laerm;31671;48.092;11.842;2023-03-23T04:27:15;30.08;28.10;36.48;;
45964;Laerm;31671;48.092;11.842;2023-03-23T04:29:41;29.82;28.03;40.67;;
45964;Laerm;31671;48.092;11.842;2023-03-23T04:32:09;31.37;28.29;41.09;;
45964;Laerm;31671;48.092;11.842;2023-03-23T04:34:43;32.81;28.26;39.63;;
45964;Laerm;31671;48.092;11.842;2023-03-23T04:37:10;31.76;28.20;40.21;;
45964;Laerm;31671;48.092;11.842;2023-03-23T04:39:36;30.98;28.24;37.53;;
45964;Laerm;31671;48.092;11.842;2023-03-23T04:42:03;30.48;28.12;37.18;;
45964;Laerm;31671;48.092;11.842;2023-03-23T04:44:47;32.13;28.21;40.47;;
45964;Laerm;31671;48.092;11.842;2023-03-23T04:47:13;33.09;28.32;43.39;;
45964;Laerm;31671;48.092;11.842;2023-03-23T04:49:47;33.46;28.14;43.93;;
45964;Laerm;31671;48.092;11.842;2023-03-23T04:52:21;29.69;28.12;34.18;;
45964;Laerm;31671;48.092;11.842;2023-03-23T04:54:52;29.81;28.19;40.94;;
45964;Laerm;31671;48.092;11.842;2023-03-23T04:57:17;31.09;27.83;41.20;;
45964;Laerm;31671;48.092;11.842;2023-03-23T04:59:54;30.69;28.21;45.46;;
45964;Laerm;31671;48.092;11.842;2023-03-23T05:02:31;34.79;28.11;45.44;;
45964;Laerm;31671;48.092;11.842;2023-03-23T05:04:58;30.44;27.93;38.33;;
45964;Laerm;31671;48.092;11.842;2023-03-23T05:07:24;30.03;28.03;34.77;;
45964;Laerm;31671;48.092;11.842;2023-03-23T05:09:52;29.85;27.82;36.51;;
45964;Laerm;31671;48.092;11.842;2023-03-23T05:12:21;29.94;28.15;38.26;;
45964;Laerm;31671;48.092;11.842;2023-03-23T05:15:00;30.05;28.26;40.20;;
45964;Laerm;31671;48.092;11.842;2023-03-23T05:17:27;29.81;28.17;32.65;;
45964;Laerm;31671;48.092;11.842;2023-03-23T05:19:56;31.44;28.27;42.70;;
45964;Laerm;31671;48.092;11.842;2023-03-23T05:22:43;29.84;28.17;36.13;;
45964;Laerm;31671;48.092;11.842;2023-03-23T05:25:10;29.71;28.22;33.50;;
45964;Laerm;31671;48.092;11.842;2023-03-23T05:27:38;30.30;28.14;36.34;;
45964;Laerm;31671;48.092;11.842;2023-03-23T05:30:16;30.01;28.32;34.66;;
45964;Laerm;31671;48.092;11.842;2023-03-23T05:32:42;31.80;28.08;43.75;;
45964;Laerm;31671;48.092;11.842;2023-03-23T05:35:27;30.06;28.20;37.50;;
45964;Laerm;31671;48.092;11.842;2023-03-23T05:37:53;29.80;28.20;35.60;;
45964;Laerm;31671;48.092;11.842;2023-03-23T05:40:21;30.07;28.13;37.38;;
45964;Laerm;31671;48.092;11.842;2023-03-23T05:42:57;30.04;28.17;37.08;;
45964;Laerm;31671;48.092;11.842;2023-03-23T05:45:29;29.95;28.36;37.70;;
45964;Laerm;31671;48.092;11.842;2023-03-23T05:47:55;30.32;28.09;38.30;;
45964;Laerm;31671;48.092;11.842;2023-03-23T05:50:21;30.81;28.19;38.18;;
45964;Laerm;31671;48.092;11.842;2023-03-23T05:52:46;30.58;28.02;38.73;;
45964;Laerm;31671;48.092;11.842;2023-03-23T05:55:14;31.47;27.87;43.39;;
45964;Laerm;31671;48.092;11.842;2023-03-23T05:57:42;30.15;27.95;42.06;;
45964;Laerm;31671;48.092;11.842;2023-03-23T06:00:30;29.55;27.89;33.64;;
45964;Laerm;31671;48.092;11.842;2023-03-23T06:03:07;29.72;28.01;35.95;;
45964;Laerm;31671;48.092;11.842;2023-03-23T06:05:45;29.73;28.29;33.19;;
45964;Laerm;31671;48.092;11.842;2023-03-23T06:08:14;29.63;28.20;34.88;;
45964;Laerm;31671;48.092;11.842;2023-03-23T06:10:40;29.84;28.08;36.17;;
45964;Laerm;31671;48.092;11.842;2023-03-23T06:13:08;30.04;27.95;38.77;;
45964;Laerm;31671;48.092;11.842;2023-03-23T06:16:03;29.64;28.21;35.04;;
45964;Laerm;31671;48.092;11.842;2023-03-23T06:18:49;30.62;28.29;38.94;;
45964;Laerm;31671;48.092;11.842;2023-03-23T06:21:24;30.32;28.26;39.69;;
45964;Laerm;31671;48.092;11.842;2023-03-23T06:23:55;29.90;28.27;41.21;;
45964;Laerm;31671;48.092;11.842;2023-03-23T06:26:23;29.78;27.94;33.28;;
45964;Laerm;31671;48.092;11.842;2023-03-23T06:28:55;29.58;28.04;35.19;;
45964;Laerm;31671;48.092;11.842;2023-03-23T06:31:21;30.11;28.18;37.50;;
45964;Laerm;31671;48.092;11.842;2023-03-23T06:33:48;30.08;28.43;38.46;;
45964;Laerm;31671;48.092;11.842;2023-03-23T06:36:25;29.79;28.08;39.00;;
45964;Laerm;31671;48.092;11.842;2023-03-23T06:39:02;30.73;28.38;37.21;;
45964;Laerm;31671;48.092;11.842;2023-03-23T06:41:41;30.81;28.38;38.03;;
45964;Laerm;31671;48.092;11.842;2023-03-23T06:44:06;29.88;28.16;35.98;;
45964;Laerm;31671;48.092;11.842;2023-03-23T06:46:32;32.11;28.38;40.88;;
45964;Laerm;31671;48.092;11.842;2023-03-23T06:49:17;30.04;28.19;42.27;;
45964;Laerm;31671;48.092;11.842;2023-03-23T06:51:49;30.87;28.25;45.48;;
45964;Laerm;31671;48.092;11.842;2023-03-23T06:54:15;29.78;28.39;41.14;;
45964;Laerm;31671;48.092;11.842;2023-03-23T06:56:43;30.00;28.34;40.71;;
45964;Laerm;31671;48.092;11.842;2023-03-23T06:59:08;30.02;28.34;41.46;;
45964;Laerm;31671;48.092;11.842;2023-03-23T07:01:34;30.38;28.47;45.22;;
45964;Laerm;31671;48.092;11.842;2023-03-23T07:04:00;33.00;28.24;48.87;;
45964;Laerm;31671;48.092;11.842;2023-03-23T07:06:44;32.17;28.75;48.65;;
45964;Laerm;31671;48.092;11.842;2023-03-23T07:09:09;34.31;28.68;54.79;;
45964;Laerm;31671;48.092;11.842;2023-03-23T07:11:36;34.72;28.90;54.11;;
45964;Laerm;31671;48.092;11.842;2023-03-23T07:14:11;37.22;28.44;55.77;;
45964;Laerm;31671;48.092;11.842;2023-03-23T07:16:39;35.32;28.60;55.80;;
45964;Laerm;31671;48.092;11.842;2023-03-23T07:19:04;34.35;28.83;51.35;;
45964;Laerm;31671;48.092;11.842;2023-03-23T07:21:30;33.36;28.38;51.69;;
45964;Laerm;31671;48.092;11.842;2023-03-23T07:23:56;37.20;28.52;56.68;;
45964;Laerm;31671;48.092;11.842;2023-03-23T07:26:46;36.60;28.60;54.36;;
45964;Laerm;31671;48.092;11.842;2023-03-23T07:29:12;32.47;28.97;48.23;;
45964;Laerm;31671;48.092;11.842;2023-03-23T07:31:41;39.23;28.77;56.58;;
45964;Laerm;31671;48.092;11.842;2023-03-23T07:34:07;34.08;28.99;50.75;;
45964;Laerm;31671;48.092;11.842;2023-03-23T07:36:42;37.81;28.48;59.77;;
45964;Laerm;31671;48.092;11.842;2023-03-23T07:39:09;31.44;28.89;48.24;;
45964;Laerm;31671;48.092;11.842;2023-03-23T07:41:34;32.15;28.32;48.60;;
45964;Laerm;31671;48.092;11.842;2023-03-23T07:44:09;30.57;28.77;43.51;;
45964;Laerm;31671;48.092;11.842;2023-03-23T07:46:36;32.11;28.90;52.91;;
45964;Laerm;31671;48.092;11.842;2023-03-23T07:49:21;30.80;28.95;42.69;;
45964;Laerm;31671;48.092;11.842;2023-03-23T07:51:58;30.90;29.12;44.62;;
45964;Laerm;31671;48.092;11.842;2023-03-23T07:54:24;31.81;28.95;47.59;;
45964;Laerm;31671;48.092;11.842;2023-03-23T07:57:16;30.95;29.18;40.61;;
45964;Laerm;31671;48.092;11.842;2023-03-23T07:59:47;31.92;29.27;43.59;;
45964;Laerm;31671;48.092;11.842;2023-03-23T08:02:13;31.12;29.28;44.65;;
45964;Laerm;31671;48.092;11.842;2023-03-23T08:04:56;39.23;29.23;62.78;;
45964;Laerm;31671;48.092;11.842;2023-03-23T08:07:31;31.67;29.31;44.95;;
45964;Laerm;31671;48.092;11.842;2023-03-23T08:10:20;31.15;29.41;40.49;;
45964;Laerm;31671;48.092;11.842;2023-03-23T08:13:12;33.41;29.44;53.14;;
45964;Laerm;31671;48.092;11.842;2023-03-23T08:16:08;38.77;29.46;64.43;;
45964;Laerm;31671;48.092;11.842;2023-03-23T08:18:51;38.06;29.13;56.89;;
45964;Laerm;31671;48.092;11.842;2023-03-23T08:21:37;37.61;29.22;54.45;;
45964;Laerm;31671;48.092;11.842;2023-03-23T08:24:18;35.24;29.29;54.88;;
45964;Laerm;31671;48.092;11.842;2023-03-23T08:27:16;33.90;28.93;53.24;;
45964;Laerm;31671;48.092;11.842;2023-03-23T08:30:05;38.37;28.90;56.56;;
45964;Laerm;31671;48.092;11.842;2023-03-23T08:32:47;41.28;28.84;61.60;;
45964;Laerm;31671;48.092;11.842;2023-03-23T08:35:14;33.90;28.96;54.87;;
45964;Laerm;31671;48.092;11.842;2023-03-23T08:37:53;41.26;28.99;60.46;;
45964;Laerm;31671;48.092;11.842;2023-03-23T08:40:37;37.66;28.64;56.06;;
45964;Laerm;31671;48.092;11.842;2023-03-23T08:43:09;40.20;28.76;59.76;;
45964;Laerm;31671;48.092;11.842;2023-03-23T08:46:13;33.48;28.97;51.27;;
45964;Laerm;31671;48.092;11.842;2023-03-23T08:48:48;34.21;28.83;54.01;;
45964;Laerm;31671;48.092;11.842;2023-03-23T08:51:33;39.36;29.11;58.10;;
45964;Laerm;31671;48.092;11.842;2023-03-23T08:54:07;32.36;29.18;48.32;;
45964;Laerm;31671;48.092;11.842;2023-03-23T08:56:52;36.24;28.96;54.58;;
45964;Laerm;31671;48.092;11.842;2023-03-23T08:59:47;32.41;29.09;47.59;;
45964;Laerm;31671;48.092;11.842;2023-03-23T09:02:17;34.27;29.33;50.74;;
45964;Laerm;31671;48.092;11.842;2023-03-23T09:05:06;31.57;29.20;44.77;;
45964;Laerm;31671;48.092;11.842;2023-03-23T09:07:52;32.35;28.92;48.14;;
45964;Laerm;31671;48.092;11.842;2023-03-23T09:10:18;38.45;29.18;58.07;;
45964;Laerm;31671;48.092;11.842;2023-03-23T09:12:45;31.53;29.27;46.57;;
45964;Laerm;31671;48.092;11.842;2023-03-23T09:15:11;35.79;29.00;56.88;;
45964;Laerm;31671;48.092;11.842;2023-03-23T09:17:39;34.40;29.36;53.92;;
45964;Laerm;31671;48.092;11.842;2023-03-23T09:20:06;30.92;28.99;37.97;;
45964;Laerm;31671;48.092;11.842;2023-03-23T09:22:32;35.20;29.34;55.67;;
45964;Laerm;31671;48.092;11.842;2023-03-23T09:24:58;31.44;29.50;44.10;;
45964;Laerm;31671;48.092;11.842;2023-03-23T09:27:23;34.02;29.30;55.86;;
45964;Laerm;31671;48.092;11.842;2023-03-23T09:29:49;33.94;29.30;49.92;;
45964;Laerm;31671;48.092;11.842;2023-03-23T09:32:15;33.82;29.33;48.01;;
45964;Laerm;31671;48.092;11.842;2023-03-23T09:34:40;42.01;29.33;54.28;;
45964;Laerm;31671;48.092;11.842;2023-03-23T09:37:09;31.88;29.26;48.99;;
45964;Laerm;31671;48.092;11.842;2023-03-23T09:39:37;30.77;29.31;37.74;;
45964;Laerm;31671;48.092;11.842;2023-03-23T09:47:19;30.53;29.13;34.53;;
45964;Laerm;31671;48.092;11.842;2023-03-23T09:49:54;30.55;29.17;43.15;;
45964;Laerm;31671;48.092;11.842;2023-03-23T09:52:21;30.51;28.90;35.10;;
45964;Laerm;31671;48.092;11.842;2023-03-23T09:54:49;30.41;28.65;34.58;;
45964;Laerm;31671;48.092;11.842;2023-03-23T09:57:26;30.35;28.97;35.03;;
45964;Laerm;31671;48.092;11.842;2023-03-23T09:59:56;30.38;28.82;36.96;;
45964;Laerm;31671;48.092;11.842;2023-03-23T10:02:35;30.41;28.54;43.96;;
45964;Laerm;31671;48.092;11.842;2023-03-23T10:07:43;30.28;28.79;35.14;;
45964;Laerm;31671;48.092;11.842;2023-03-23T10:10:11;29.99;28.55;36.06;;
45964;Laerm;31671;48.092;11.842;2023-03-23T10:22:39;29.37;27.73;33.56;;
45964;Laerm;31671;48.092;11.842;2023-03-23T10:25:14;30.00;28.16;38.45;;
45964;Laerm;31671;48.092;11.842;2023-03-23T10:27:42;29.62;27.89;39.88;;
45964;Laerm;31671;48.092;11.842;2023-03-23T10:32:39;29.54;28.15;32.91;;
45964;Laerm;31671;48.092;11.842;2023-03-23T10:35:06;29.51;28.21;33.12;;
45964;Laerm;31671;48.092;11.842;2023-03-23T10:37:34;29.92;28.25;47.53;;
45964;Laerm;31671;48.092;11.842;2023-03-23T10:40:03;29.50;28.22;35.66;;
45964;Laerm;31671;48.092;11.842;2023-03-23T10:42:30;29.42;28.08;34.68;;
45964;Laerm;31671;48.092;11.842;2023-03-23T10:44:56;29.30;27.87;31.53;;
45964;Laerm;31671;48.092;11.842;2023-03-23T10:47:23;29.56;27.97;33.61;;
45964;Laerm;31671;48.092;11.842;2023-03-23T10:49:54;29.50;28.06;33.52;;
45964;Laerm;31671;48.092;11.842;2023-03-23T10:54:51;29.45;27.92;35.48;;
45964;Laerm;31671;48.092;11.842;2023-03-23T10:57:27;30.22;28.25;35.94;;
45964;Laerm;31671;48.092;11.842;2023-03-23T10:59:57;29.84;28.02;39.28;;
45964;Laerm;31671;48.092;11.842;2023-03-23T11:02:23;29.84;28.08;32.81;;
45964;Laerm;31671;48.092;11.842;2023-03-23T11:05:03;29.95;28.26;33.90;;
45964;Laerm;31671;48.092;11.842;2023-03-23T11:07:31;29.63;27.89;33.46;;
45964;Laerm;31671;48.092;11.842;2023-03-23T11:10:04;29.80;28.48;32.22;;
45964;Laerm;31671;48.092;11.842;2023-03-23T11:12:32;29.84;28.48;37.82;;
45964;Laerm;31671;48.092;11.842;2023-03-23T11:15:15;30.02;28.62;37.09;;
45964;Laerm;31671;48.092;11.842;2023-03-23T11:17:42;29.88;28.60;37.53;;
45964;Laerm;31671;48.092;11.842;2023-03-23T11:20:11;30.08;28.52;35.77;;
45964;Laerm;31671;48.092;11.842;2023-03-23T11:22:37;30.33;28.35;36.04;;
45964;Laerm;31671;48.092;11.842;2023-03-23T11:25:04;29.96;28.26;32.74;;
45964;Laerm;31671;48.092;11.842;2023-03-23T11:27:30;30.09;28.37;38.71;;
45964;Laerm;31671;48.092;11.842;2023-03-23T11:29:58;30.32;28.43;46.06;;
45964;Laerm;31671;48.092;11.842;2023-03-23T11:32:26;36.17;28.81;43.21;;
45964;Laerm;31671;48.092;11.842;2023-03-23T11:35:00;39.08;33.46;43.61;;
45964;Laerm;31671;48.092;11.842;2023-03-23T11:37:32;33.68;29.07;39.67;;
45964;Laerm;31671;48.092;11.842;2023-03-23T11:39:59;30.09;28.49;37.29;;
45964;Laerm;31671;48.092;11.842;2023-03-23T11:42:26;30.30;28.40;37.04;;
45964;Laerm;31671;48.092;11.842;2023-03-23T11:45:12;29.71;28.19;43.52;;
45964;Laerm;31671;48.092;11.842;2023-03-23T11:48:21;30.21;28.33;45.41;;
45964;Laerm;31671;48.092;11.842;2023-03-23T11:50:36;45.42;29.84;55.79;;
45964;Laerm;31671;48.092;11.842;2023-03-23T11:58:22;31.44;28.80;36.78;;
45964;Laerm;31671;48.092;11.842;2023-03-23T12:03:14;29.61;28.29;35.24;;
45964;Laerm;31671;48.092;11.842;2023-03-23T12:09:06;29.65;28.03;47.76;;
45964;Laerm;31671;48.092;11.842;2023-03-23T12:17:26;32.68;28.15;44.63;;
45964;Laerm;31671;48.092;11.842;2023-03-23T12:19:59;30.48;28.47;41.77;;
45964;Laerm;31671;48.092;11.842;2023-03-23T12:22:37;29.89;28.23;45.07;;
45964;Laerm;31671;48.092;11.842;2023-03-23T12:25:30;29.59;27.92;41.79;;
45964;Laerm;31671;48.092;11.842;2023-03-23T12:28:08;29.37;27.86;31.27;;
45964;Laerm;31671;48.092;11.842;2023-03-23T12:30:47;29.71;28.05;43.37;;
45964;Laerm;31671;48.092;11.842;2023-03-23T12:36:45;29.70;28.22;36.29;;
45964;Laerm;31671;48.092;11.842;2023-03-23T12:38:54;29.61;28.05;45.56;;
45964;Laerm;31671;48.092;11.842;2023-03-23T12:43:51;35.17;27.91;51.43;;
45964;Laerm;31671;48.092;11.842;2023-03-23T12:49:12;39.03;28.10;50.07;;
45964;Laerm;31671;48.092;11.842;2023-03-23T12:56:45;29.61;27.89;39.09;;
45964;Laerm;31671;48.092;11.842;2023-03-23T12:59:22;29.50;28.05;44.37;;
45964;Laerm;31671;48.092;11.842;2023-03-23T13:01:50;29.61;28.08;39.31;;
45964;Laerm;31671;48.092;11.842;2023-03-23T13:04:22;29.47;27.97;35.39;;
45964;Laerm;31671;48.092;11.842;2023-03-23T13:06:50;30.51;28.04;39.95;;
45964;Laerm;31671;48.092;11.842;2023-03-23T13:09:17;29.62;28.02;47.86;;
45964;Laerm;31671;48.092;11.842;2023-03-23T13:11:46;29.49;27.82;35.01;;
45964;Laerm;31671;48.092;11.842;2023-03-23T13:14:21;30.33;27.92;51.82;;
45964;Laerm;31671;48.092;11.842;2023-03-23T13:16:55;29.80;27.90;48.93;;
45964;Laerm;31671;48.092;11.842;2023-03-23T13:19:30;32.86;27.91;64.47;;
45964;Laerm;31671;48.092;11.842;2023-03-23T13:24:27;30.00;27.96;46.06;;
45964;Laerm;31671;48.092;11.842;2023-03-23T13:26:54;29.65;27.96;44.30;;
45964;Laerm;31671;48.092;11.842;2023-03-23T13:29:20;31.85;27.88;51.15;;
45964;Laerm;31671;48.092;11.842;2023-03-23T13:31:47;29.88;28.02;42.93;;
45964;Laerm;31671;48.092;11.842;2023-03-23T13:36:43;29.49;27.88;40.80;;
45964;Laerm;31671;48.092;11.842;2023-03-23T13:47:21;30.08;27.97;45.03;;
45964;Laerm;31671;48.092;11.842;2023-03-23T13:49:51;31.47;28.22;44.96;;
45964;Laerm;31671;48.092;11.842;2023-03-23T13:54:44;30.07;27.87;46.81;;
45964;Laerm;31671;48.092;11.842;2023-03-23T14:00:50;29.34;27.94;30.92;;
45964;Laerm;31671;48.092;11.842;2023-03-23T14:02:51;30.04;27.99;49.62;;
45964;Laerm;31671;48.092;11.842;2023-03-23T14:07:59;29.43;28.06;32.22;;
45964;Laerm;31671;48.092;11.842;2023-03-23T14:10:32;29.41;28.01;38.79;;
45964;Laerm;31671;48.092;11.842;2023-03-23T14:12:58;29.64;28.18;35.16;;
45964;Laerm;31671;48.092;11.842;2023-03-23T14:15:28;30.03;27.92;47.09;;
45964;Laerm;31671;48.092;11.842;2023-03-23T14:17:54;30.64;28.16;53.97;;
45964;Laerm;31671;48.092;11.842;2023-03-23T14:20:23;29.59;28.05;44.74;;
45964;Laerm;31671;48.092;11.842;2023-03-23T14:22:52;29.84;28.26;44.01;;
45964;Laerm;31671;48.092;11.842;2023-03-23T14:25:18;29.45;28.07;31.43;;
45964;Laerm;31671;48.092;11.842;2023-03-23T14:27:44;29.69;28.09;33.32;;
45964;Laerm;31671;48.092;11.842;2023-03-23T14:30:14;30.53;28.19;53.07;;
45964;Laerm;31671;48.092;11.842;2023-03-23T14:32:40;30.38;28.23;48.00;;
45964;Laerm;31671;48.092;11.842;2023-03-23T14:35:07;33.25;28.11;57.82;;
45964;Laerm;31671;48.092;11.842;2023-03-23T14:37:34;30.30;28.13;50.76;;
45964;Laerm;31671;48.092;11.842;2023-03-23T14:40:00;30.28;28.32;38.62;;
45964;Laerm;31671;48.092;11.842;2023-03-23T14:42:28;29.92;28.34;33.96;;
45964;Laerm;31671;48.092;11.842;2023-03-23T14:44:54;29.86;28.46;34.56;;
45964;Laerm;31671;48.092;11.842;2023-03-23T14:49:45;30.79;28.58;45.16;;
45964;Laerm;31671;48.092;11.842;2023-03-23T14:52:13;29.79;28.46;40.59;;
45964;Laerm;31671;48.092;11.842;2023-03-23T14:54:39;29.82;28.12;35.12;;
45964;Laerm;31671;48.092;11.842;2023-03-23T14:57:10;30.16;28.49;41.98;;
45964;Laerm;31671;48.092;11.842;2023-03-23T14:59:36;29.91;28.51;36.61;;
45964;Laerm;31671;48.092;11.842;2023-03-23T15:02:02;29.87;28.18;37.10;;
45964;Laerm;31671;48.092;11.842;2023-03-23T15:04:28;30.00;28.16;34.36;;
45964;Laerm;31671;48.092;11.842;2023-03-23T15:06:56;29.98;28.68;37.78;;
45964;Laerm;31671;48.092;11.842;2023-03-23T15:09:24;30.24;28.60;34.60;;
45964;Laerm;31671;48.092;11.842;2023-03-23T15:11:51;30.11;28.40;34.67;;
45964;Laerm;31671;48.092;11.842;2023-03-23T15:14:19;30.02;28.66;35.39;;
45964;Laerm;31671;48.092;11.842;2023-03-23T15:16:46;30.07;28.64;34.30;;
45964;Laerm;31671;48.092;11.842;2023-03-23T15:19:15;30.13;28.69;36.54;;
45964;Laerm;31671;48.092;11.842;2023-03-23T15:21:52;30.41;28.55;35.54;;
45964;Laerm;31671;48.092;11.842;2023-03-23T15:24:20;30.47;28.82;34.47;;
45964;Laerm;31671;48.092;11.842;2023-03-23T15:26:45;30.36;28.85;36.81;;